createdAt,value
2023-03-28T00:00:23.478Z,4.50
2023-03-28T00:03:12.858Z,4.50
2023-03-28T00:06:01.509Z,4.50
2023-03-28T00:08:49.960Z,4.50
2023-03-28T00:11:40.597Z,4.60
2023-03-28T00:14:27.975Z,4.60
2023-03-28T00:17:17.116Z,4.60
2023-03-28T00:20:06.880Z,4.50
2023-03-28T00:22:54.901Z,4.40
2023-03-28T00:25:43.430Z,4.40
2023-03-28T00:28:30.848Z,4.50
2023-03-28T00:31:18.466Z,4.50
2023-03-28T00:34:07.013Z,4.40
2023-03-28T00:36:55.024Z,4.50
2023-03-28T00:39:43.440Z,4.60
2023-03-28T00:42:31.070Z,4.60
2023-03-28T00:45:20.317Z,4.70
2023-03-28T00:48:14.690Z,4.70
2023-03-28T00:51:01.741Z,4.70
2023-03-28T00:53:49.929Z,4.80
2023-03-28T00:56:38.625Z,4.90
2023-03-28T00:59:29.250Z,5.10
2023-03-28T01:02:16.882Z,5.20
2023-03-28T01:05:04.571Z,5.20
2023-03-28T01:07:55.196Z,5.10
2023-03-28T01:10:44.487Z,5.10
2023-03-28T01:13:34.648Z,5.00
2023-03-28T01:16:23.627Z,5.00
2023-03-28T01:19:14.110Z,4.90
2023-03-28T01:22:16.672Z,4.90
2023-03-28T01:25:38.849Z,5.00
2023-03-28T01:28:38.212Z,4.90
2023-03-28T01:31:31.964Z,4.80
2023-03-28T01:34:25.483Z,4.80
2023-03-28T01:37:27.088Z,4.80
2023-03-28T01:40:34.266Z,4.80
2023-03-28T01:43:39.190Z,4.80
2023-03-28T01:46:35.358Z,4.70
2023-03-28T01:49:40.404Z,4.60
2023-03-28T01:52:54.058Z,4.60
2023-03-28T01:55:57.203Z,4.50
2023-03-28T01:59:09.062Z,4.50
2023-03-28T02:02:05.209Z,4.50
2023-03-28T02:04:57.039Z,4.60
2023-03-28T02:07:45.969Z,4.50
2023-03-28T02:10:34.116Z,4.60
2023-03-28T02:13:27.703Z,4.50
2023-03-28T02:16:16.757Z,4.60
2023-03-28T02:19:06.315Z,4.40
2023-03-28T02:21:57.082Z,4.40
2023-03-28T02:24:46.085Z,4.40
2023-03-28T02:27:34.754Z,4.40
2023-03-28T02:30:22.841Z,4.40
2023-03-28T02:33:30.200Z,4.40
2023-03-28T02:36:38.164Z,4.40
2023-03-28T02:39:43.609Z,4.40
2023-03-28T02:42:40.186Z,4.30
2023-03-28T02:45:48.621Z,4.20
2023-03-28T02:48:59.203Z,4.30
2023-03-28T02:52:01.574Z,4.20
2023-03-28T02:55:01.929Z,4.20
2023-03-28T02:57:55.324Z,4.20
2023-03-28T03:00:43.083Z,4.30
2023-03-28T03:03:31.209Z,4.20
2023-03-28T03:06:19.458Z,4.10
2023-03-28T03:09:08.248Z,4.00
2023-03-28T03:11:55.732Z,3.90
2023-03-28T03:14:44.083Z,3.90
2023-03-28T03:17:31.423Z,3.90
2023-03-28T03:20:19.363Z,3.90
2023-03-28T03:23:07.458Z,3.90
2023-03-28T03:25:55.084Z,3.90
2023-03-28T03:28:42.520Z,3.80
2023-03-28T03:31:30.228Z,3.80
2023-03-28T03:34:17.860Z,3.70
2023-03-28T03:37:05.645Z,3.70
2023-03-28T03:39:52.960Z,3.60
2023-03-28T03:42:40.694Z,3.50
2023-03-28T03:45:27.871Z,3.50
2023-03-28T03:48:15.213Z,3.50
2023-03-28T03:51:02.928Z,3.40
2023-03-28T03:53:51.923Z,3.40
2023-03-28T03:56:39.309Z,3.40
2023-03-28T03:59:27.421Z,3.40
2023-03-28T04:02:15.025Z,3.40
2023-03-28T04:05:02.389Z,3.40
2023-03-28T04:07:50.057Z,3.40
2023-03-28T04:10:37.202Z,3.40
2023-03-28T04:13:24.551Z,3.40
2023-03-28T04:16:13.686Z,3.30
2023-03-28T04:19:01.799Z,3.30
2023-03-28T04:21:51.720Z,3.30
2023-03-28T04:24:40.884Z,3.30
2023-03-28T04:27:31.308Z,3.30
2023-03-28T04:30:18.906Z,3.40
2023-03-28T04:33:06.393Z,3.40
2023-03-28T04:36:00.683Z,3.50
2023-03-28T04:38:47.993Z,3.40
2023-03-28T04:41:35.255Z,3.40
2023-03-28T04:44:24.021Z,3.40
2023-03-28T04:47:12.876Z,3.30
2023-03-28T04:50:00.205Z,3.30
2023-03-28T04:52:47.489Z,3.30
2023-03-28T04:55:35.216Z,3.30
2023-03-28T04:58:24.718Z,3.30
2023-03-28T05:01:11.997Z,3.30
2023-03-28T05:03:59.513Z,3.30
2023-03-28T05:06:48.684Z,3.30
2023-03-28T05:09:36.111Z,3.30
2023-03-28T05:12:23.557Z,3.20
2023-03-28T05:15:11.454Z,3.10
2023-03-28T05:18:00.711Z,3.20
2023-03-28T05:20:48.067Z,3.30
2023-03-28T05:23:35.251Z,3.20
2023-03-28T05:26:22.687Z,3.20
2023-03-28T05:29:10.438Z,3.30
2023-03-28T05:31:57.957Z,3.30
2023-03-28T05:34:47.084Z,3.30
2023-03-28T05:37:34.483Z,3.30
2023-03-28T05:40:21.976Z,3.30
2023-03-28T05:43:09.227Z,3.20
2023-03-28T05:45:56.834Z,3.10
2023-03-28T05:48:49.481Z,3.10
2023-03-28T05:51:33.708Z,3.10
2023-03-28T05:54:21.226Z,3.10
2023-03-28T05:57:08.920Z,3.00
2023-03-28T05:59:56.031Z,3.10
2023-03-28T06:02:43.718Z,3.20
2023-03-28T06:05:31.372Z,3.30
2023-03-28T06:08:18.909Z,3.30
2023-03-28T06:11:07.700Z,3.40
2023-03-28T06:13:55.332Z,3.50
2023-03-28T06:16:42.712Z,3.60
2023-03-28T06:19:30.023Z,3.70
2023-03-28T06:22:17.512Z,3.70
2023-03-28T06:25:06.087Z,3.80
2023-03-28T06:27:53.296Z,4.00
2023-03-28T06:30:40.641Z,3.90
2023-03-28T06:33:28.200Z,4.00
2023-03-28T06:36:16.172Z,4.20
2023-03-28T06:39:03.511Z,4.10
2023-03-28T06:41:50.814Z,4.20
2023-03-28T06:44:38.358Z,4.30
2023-03-28T06:47:25.787Z,4.30
2023-03-28T06:50:13.519Z,4.30
2023-03-28T06:53:01.151Z,4.40
2023-03-28T06:55:51.211Z,4.50
2023-03-28T06:58:39.266Z,4.50
2023-03-28T07:01:26.363Z,4.60
2023-03-28T07:04:13.967Z,4.80
2023-03-28T07:07:01.248Z,4.90
2023-03-28T07:09:49.942Z,4.90
2023-03-28T07:12:37.459Z,5.00
2023-03-28T07:15:25.186Z,5.10
2023-03-28T07:18:12.397Z,5.20
2023-03-28T07:21:04.129Z,5.30
2023-03-28T07:23:48.909Z,5.50
2023-03-28T07:26:36.294Z,5.60
2023-03-28T07:29:23.534Z,5.70
2023-03-28T07:32:11.468Z,5.80
2023-03-28T07:34:58.821Z,5.90
2023-03-28T07:37:47.153Z,6.00
2023-03-28T07:40:34.370Z,6.20
2023-03-28T07:43:21.997Z,6.30
2023-03-28T07:46:14.188Z,6.40
2023-03-28T07:49:02.048Z,6.50
2023-03-28T07:51:49.514Z,6.60
2023-03-28T07:54:37.304Z,6.70
2023-03-28T07:57:24.376Z,6.80
2023-03-28T08:00:13.177Z,6.90
2023-03-28T08:03:00.594Z,7.00
2023-03-28T08:05:54.235Z,6.90
2023-03-28T08:08:42.343Z,6.80
2023-03-28T08:11:30.231Z,6.80
2023-03-28T08:14:19.300Z,6.70
2023-03-28T08:17:06.689Z,6.80
2023-03-28T08:19:54.381Z,6.80
2023-03-28T08:22:41.874Z,6.90
2023-03-28T08:25:29.485Z,7.00
2023-03-28T08:28:17.065Z,7.20
2023-03-28T08:31:11.735Z,7.30
2023-03-28T08:33:59.981Z,7.20
2023-03-28T08:36:47.420Z,7.20
2023-03-28T08:39:34.849Z,7.30
2023-03-28T08:42:49.402Z,7.20
2023-03-28T08:45:54.864Z,7.00
2023-03-28T08:48:47.844Z,7.00
2023-03-28T08:51:38.847Z,7.20
2023-03-28T08:54:32.373Z,7.20
2023-03-28T08:57:34.952Z,7.30
2023-03-28T09:00:31.144Z,7.50
2023-03-28T09:03:21.887Z,7.70
2023-03-28T09:06:21.753Z,7.80
2023-03-28T09:09:20.987Z,8.00
2023-03-28T09:12:26.797Z,8.40
2023-03-28T09:15:17.313Z,8.70
2023-03-28T09:18:13.887Z,8.60
2023-03-28T09:21:27.703Z,8.60
2023-03-28T09:24:32.474Z,8.70
2023-03-28T09:27:32.212Z,8.90
2023-03-28T09:30:22.761Z,9.20
2023-03-28T09:33:13.567Z,9.40
2023-03-28T09:36:02.040Z,9.70
2023-03-28T09:39:01.502Z,9.80
2023-03-28T09:41:54.765Z,9.80
2023-03-28T09:44:54.062Z,9.90
2023-03-28T09:47:34.072Z,10.00
2023-03-28T09:50:21.920Z,10.00
2023-03-28T09:53:12.251Z,9.90
2023-03-28T09:56:08.778Z,10.20
2023-03-28T09:58:57.999Z,10.40
2023-03-28T10:01:48.050Z,10.70
2023-03-28T10:04:38.228Z,11.20
2023-03-28T10:07:43.195Z,11.60
2023-03-28T10:10:30.849Z,11.90
2023-03-28T10:13:23.248Z,11.60
2023-03-28T10:16:13.205Z,12.00
2023-03-28T10:19:01.062Z,12.00
2023-03-28T10:21:49.636Z,11.50
2023-03-28T10:24:39.143Z,11.30
2023-03-28T10:27:32.594Z,11.50
2023-03-28T10:30:32.359Z,11.50
2023-03-28T10:33:23.227Z,11.70
2023-03-28T10:36:12.872Z,11.90
2023-03-28T10:39:01.238Z,12.00
2023-03-28T10:41:57.539Z,11.70
2023-03-28T10:44:46.632Z,11.60
2023-03-28T10:47:34.719Z,11.80
2023-03-28T10:50:43.055Z,11.70
2023-03-28T10:54:02.476Z,11.50
2023-03-28T10:56:55.560Z,11.80
2023-03-28T10:59:55.968Z,12.20
2023-03-28T11:02:52.433Z,12.00
2023-03-28T11:06:09.387Z,11.50
2023-03-28T11:08:53.005Z,11.20
2023-03-28T11:12:04.617Z,11.30
2023-03-28T11:15:06.614Z,11.00
2023-03-28T11:17:59.812Z,11.10
2023-03-28T11:21:10.127Z,11.30
2023-03-28T11:24:21.635Z,11.50
2023-03-28T11:27:16.270Z,12.00
2023-03-28T11:30:06.106Z,12.30
2023-03-28T11:33:21.358Z,12.10
2023-03-28T11:36:11.578Z,12.00
2023-03-28T11:39:02.103Z,11.90
2023-03-28T11:41:52.105Z,11.90
2023-03-28T11:44:51.424Z,11.90
2023-03-28T11:47:50.715Z,12.20
2023-03-28T11:50:59.283Z,12.20
2023-03-28T11:54:05.244Z,12.40
2023-03-28T11:57:13.674Z,12.00
2023-03-28T12:00:33.784Z,12.20
2023-03-28T12:03:35.581Z,12.00
2023-03-28T12:06:39.489Z,12.00
2023-03-28T12:09:55.959Z,12.00
2023-03-28T12:12:46.463Z,11.80
2023-03-28T12:15:42.838Z,11.60
2023-03-28T12:18:36.369Z,12.10
2023-03-28T12:21:27.469Z,12.70
2023-03-28T12:24:42.555Z,12.90
2023-03-28T12:27:42.678Z,13.00
2023-03-28T12:30:36.272Z,12.70
2023-03-28T12:33:36.728Z,12.70
2023-03-28T12:36:39.015Z,12.30
2023-03-28T12:39:38.772Z,12.40
2023-03-28T12:42:29.272Z,12.70
2023-03-28T12:45:19.670Z,12.90
2023-03-28T12:48:26.567Z,12.90
2023-03-28T12:51:22.644Z,13.10
2023-03-28T12:54:19.105Z,13.20
2023-03-28T12:57:09.605Z,13.40
2023-03-28T13:00:06.170Z,13.30
2023-03-28T13:03:18.263Z,13.10
2023-03-28T13:06:12.121Z,13.20
2023-03-28T13:09:20.228Z,13.30
2023-03-28T13:12:33.512Z,12.90
2023-03-28T13:15:25.241Z,13.00
2023-03-28T13:18:21.905Z,12.60
2023-03-28T13:21:11.015Z,12.50
2023-03-28T13:23:58.191Z,12.80
2023-03-28T13:26:59.319Z,12.90
2023-03-28T13:29:49.151Z,12.60
2023-03-28T13:32:39.942Z,12.30
2023-03-28T13:35:48.910Z,12.50
2023-03-28T13:39:12.421Z,12.60
2023-03-28T13:42:00.888Z,12.40
2023-03-28T13:44:51.004Z,12.80
2023-03-28T13:47:41.008Z,12.90
2023-03-28T13:50:31.727Z,12.50
2023-03-28T13:53:19.034Z,12.60
2023-03-28T13:56:27.893Z,12.60
2023-03-28T13:59:20.657Z,12.40
2023-03-28T14:02:20.011Z,12.10
2023-03-28T14:05:28.448Z,11.90
2023-03-28T14:08:18.811Z,12.10
2023-03-28T14:11:06.461Z,12.60
2023-03-28T14:13:57.053Z,12.40
2023-03-28T14:16:46.247Z,12.30
2023-03-28T14:19:45.886Z,12.40
2023-03-28T14:22:40.819Z,12.60
2023-03-28T14:25:26.402Z,12.70
2023-03-28T14:28:16.354Z,12.80
2023-03-28T14:31:04.087Z,12.80
2023-03-28T14:33:52.799Z,12.40
2023-03-28T14:36:44.443Z,12.40
2023-03-28T14:39:34.142Z,12.10
2023-03-28T14:42:24.187Z,12.10
2023-03-28T14:45:14.887Z,12.00
2023-03-28T14:48:04.217Z,12.40
2023-03-28T14:50:53.699Z,12.20
2023-03-28T14:53:47.475Z,12.10
2023-03-28T14:56:35.216Z,12.20
2023-03-28T14:59:24.270Z,12.40
2023-03-28T15:02:27.014Z,12.10
2023-03-28T15:05:17.336Z,12.00
2023-03-28T15:08:06.209Z,11.80
2023-03-28T15:10:55.228Z,11.80
2023-03-28T15:13:48.797Z,12.10
2023-03-28T15:16:42.229Z,12.50
2023-03-28T15:19:35.397Z,12.60
2023-03-28T15:22:29.541Z,12.40
2023-03-28T15:25:17.281Z,12.20
2023-03-28T15:28:09.380Z,12.00
2023-03-28T15:31:01.230Z,12.20
2023-03-28T15:33:50.279Z,12.60
2023-03-28T15:36:38.010Z,12.40
2023-03-28T15:39:27.661Z,12.40
2023-03-28T15:42:26.282Z,12.30
2023-03-28T15:45:16.586Z,12.40
2023-03-28T15:48:04.138Z,12.40
2023-03-28T15:50:54.090Z,12.00
2023-03-28T15:53:42.579Z,11.60
2023-03-28T15:56:36.327Z,11.40
2023-03-28T15:59:39.900Z,11.40
2023-03-28T16:02:30.352Z,11.60
2023-03-28T16:05:20.618Z,11.40
2023-03-28T16:08:11.204Z,11.30
2023-03-28T16:10:59.192Z,11.20
2023-03-28T16:13:46.977Z,11.10
2023-03-28T16:16:34.664Z,11.10
2023-03-28T16:19:28.133Z,11.00
2023-03-28T16:22:15.989Z,10.90
2023-03-28T16:25:03.358Z,11.00
2023-03-28T16:27:51.372Z,11.10
2023-03-28T16:30:43.044Z,11.10
2023-03-28T16:33:30.683Z,11.20
2023-03-28T16:36:19.329Z,11.20
2023-03-28T16:39:08.356Z,11.10
2023-03-28T16:41:56.299Z,11.10
2023-03-28T16:44:43.825Z,11.20
2023-03-28T16:47:31.516Z,10.90
2023-03-28T16:50:18.879Z,10.80
2023-03-28T16:53:06.508Z,10.70
2023-03-28T16:55:54.335Z,10.70
2023-03-28T16:58:42.309Z,10.50
2023-03-28T17:01:29.593Z,10.60
2023-03-28T17:04:16.962Z,10.40
2023-03-28T17:07:04.727Z,10.30
2023-03-28T17:09:52.334Z,10.30
2023-03-28T17:12:39.423Z,10.20
2023-03-28T17:15:27.080Z,10.30
2023-03-28T17:18:14.303Z,10.30
2023-03-28T17:21:03.694Z,10.30
2023-03-28T17:23:51.561Z,10.20
2023-03-28T17:26:38.869Z,10.10
2023-03-28T17:29:26.730Z,9.90
2023-03-28T17:32:14.195Z,9.90
2023-03-28T17:35:01.465Z,9.80
2023-03-28T17:37:49.166Z,9.70
2023-03-28T17:40:37.189Z,9.80
2023-03-28T17:43:24.784Z,9.70
2023-03-28T17:46:13.324Z,9.70
2023-03-28T17:49:01.083Z,9.80
2023-03-28T17:51:49.835Z,9.80
2023-03-28T17:54:37.094Z,9.70
2023-03-28T17:57:24.737Z,9.80
2023-03-28T18:00:13.278Z,9.70
2023-03-28T18:03:00.545Z,9.70
2023-03-28T18:05:56.397Z,9.70
2023-03-28T18:08:44.754Z,9.70
2023-03-28T18:11:32.209Z,9.70
2023-03-28T18:14:20.057Z,9.80
2023-03-28T18:17:08.287Z,9.70
2023-03-28T18:19:55.788Z,9.60
2023-03-28T18:22:43.356Z,9.60
2023-03-28T18:25:32.957Z,9.50
2023-03-28T18:28:23.759Z,9.60
2023-03-28T18:31:17.225Z,9.60
2023-03-28T18:34:05.233Z,9.60
2023-03-28T18:36:53.800Z,9.70
2023-03-28T18:39:45.410Z,9.70
2023-03-28T18:42:32.469Z,9.50
2023-03-28T18:45:20.195Z,9.60
2023-03-28T18:48:08.875Z,9.60
2023-03-28T18:51:01.559Z,9.70
2023-03-28T18:53:48.800Z,9.80
2023-03-28T18:56:36.094Z,9.80
2023-03-28T18:59:23.652Z,9.90
2023-03-28T19:02:15.487Z,9.90
2023-03-28T19:05:02.630Z,10.00
2023-03-28T19:07:49.912Z,10.10
2023-03-28T19:10:37.342Z,10.20
2023-03-28T19:13:25.579Z,10.20
2023-03-28T19:16:15.581Z,10.20
2023-03-28T19:19:03.526Z,10.20
2023-03-28T19:21:51.803Z,10.10
2023-03-28T19:24:39.242Z,10.00
2023-03-28T19:27:26.733Z,10.10
2023-03-28T19:30:14.276Z,10.10
2023-03-28T19:33:01.558Z,10.20
2023-03-28T19:35:49.027Z,10.10
2023-03-28T19:38:38.896Z,10.10
2023-03-28T19:41:26.271Z,10.20
2023-03-28T19:44:13.576Z,10.20
2023-03-28T19:47:01.198Z,10.10
2023-03-28T19:49:49.321Z,10.10
2023-03-28T19:52:38.027Z,10.10
2023-03-28T19:55:25.323Z,10.10
2023-03-28T19:58:12.772Z,10.10
2023-03-28T20:01:02.378Z,10.10
2023-03-28T20:03:51.562Z,10.10
2023-03-28T20:06:39.314Z,10.10
2023-03-28T20:09:26.420Z,10.10
2023-03-28T20:12:13.979Z,10.10
2023-03-28T20:15:01.841Z,9.90
2023-03-28T20:17:49.138Z,9.90
2023-03-28T20:20:38.948Z,9.80
2023-03-28T20:23:28.860Z,9.80
2023-03-28T20:26:18.875Z,9.70
2023-03-28T20:29:08.056Z,9.60
2023-03-28T20:31:55.473Z,9.60
2023-03-28T20:34:42.995Z,9.60
2023-03-28T20:37:32.091Z,9.60
2023-03-28T20:40:20.453Z,9.50
2023-03-28T20:43:09.575Z,9.40
2023-03-28T20:46:01.126Z,9.50
2023-03-28T20:48:52.226Z,9.40
2023-03-28T20:51:40.050Z,9.20
2023-03-28T20:54:28.201Z,9.00
2023-03-28T20:57:16.002Z,9.00
2023-03-28T21:00:06.169Z,8.90
2023-03-28T21:02:56.615Z,8.90
2023-03-28T21:05:45.984Z,8.90
2023-03-28T21:08:34.792Z,8.80
2023-03-28T21:11:27.025Z,8.80
2023-03-28T21:14:15.401Z,8.70
2023-03-28T21:17:04.377Z,8.70
2023-03-28T21:19:53.703Z,8.80
2023-03-28T21:22:40.905Z,8.90
2023-03-28T21:25:28.856Z,9.10
2023-03-28T21:28:16.112Z,9.20
2023-03-28T21:31:07.373Z,9.30
2023-03-28T21:33:58.129Z,9.40
2023-03-28T21:36:45.730Z,9.50
2023-03-28T21:39:33.056Z,9.60
2023-03-28T21:42:20.531Z,9.70
2023-03-28T21:45:08.279Z,9.80
2023-03-28T21:47:56.037Z,9.80
2023-03-28T21:50:53.973Z,9.80
2023-03-28T21:53:42.300Z,9.70
2023-03-28T21:56:29.460Z,9.80
2023-03-28T21:59:16.744Z,9.70
2023-03-28T22:02:04.428Z,9.60
2023-03-28T22:04:52.071Z,9.60
2023-03-28T22:07:39.719Z,9.60
2023-03-28T22:10:29.328Z,9.60
2023-03-28T22:13:17.082Z,9.60
2023-03-28T22:16:04.899Z,9.60
2023-03-28T22:18:52.588Z,9.50
2023-03-28T22:21:40.197Z,9.50
2023-03-28T22:24:29.242Z,9.30
2023-03-28T22:27:16.443Z,9.20
2023-03-28T22:30:04.334Z,9.10
2023-03-28T22:32:52.039Z,8.90
2023-03-28T22:35:39.460Z,8.70
2023-03-28T22:38:27.092Z,8.60
2023-03-28T22:41:14.679Z,8.70
2023-03-28T22:44:02.116Z,8.90
2023-03-28T22:46:49.583Z,9.00
2023-03-28T22:49:39.494Z,9.00
2023-03-28T22:52:27.009Z,9.00
2023-03-28T22:55:14.664Z,9.10
2023-03-28T22:58:02.219Z,9.00
2023-03-28T23:00:50.528Z,9.00
2023-03-28T23:03:38.044Z,8.90
2023-03-28T23:06:25.557Z,8.90
2023-03-28T23:09:14.047Z,9.00
2023-03-28T23:12:01.635Z,8.90
2023-03-28T23:14:49.070Z,9.00
2023-03-28T23:17:36.380Z,9.00
2023-03-28T23:20:24.521Z,9.00
2023-03-28T23:23:12.625Z,8.90
2023-03-28T23:26:00.688Z,9.00
2023-03-28T23:28:48.290Z,9.00
2023-03-28T23:31:35.477Z,8.90
2023-03-28T23:34:22.698Z,8.80
2023-03-28T23:37:10.385Z,8.80
2023-03-28T23:39:58.015Z,8.70
2023-03-28T23:42:46.317Z,8.70
2023-03-28T23:45:34.073Z,8.80
2023-03-28T23:48:21.896Z,9.00
2023-03-28T23:51:10.015Z,9.00
2023-03-28T23:53:57.697Z,8.90
2023-03-28T23:56:45.987Z,9.00
2023-03-28T23:59:33.784Z,8.90
